Latest Weather Observations for Redesdale

IDV60801

Issued at 10:35 pm EST Thursday 28 August 2014 (issued every 30 minutes, with the page automatically refreshed every 10 minutes)

About weather observations | Map of weather stations | Latest weather observations for VIC | Other Formats
Station Details ID: 088051 Name: REDESDALE Lat: -37.02 Lon: 144.52 Height: 290.0 m
Data from the previous 72 hours. | See also: Recent months at Redesdale
Date/Time
EST
Temp
°C
App
Temp
°C
Dew
Point
Rel
Hum
%
Delta-T
°C
Wind Press
QNH
hPa
Press
MSL
hPa
Rain
since 9 am
mm
Dir
 
Spd
km/h
Gust
km/h
Spd
kts
Gust
kts
28/10:30pm 7.3 4.6 5.4 88 0.9 S 9 11 5 6 - - 0.0
28/10:00pm 8.1 5.1 5.9 86 1.0 S 11 13 6 7 - - 0.0
28/09:30pm 8.1 4.8 6.4 89 0.8 S 13 15 7 8 - - 0.0
28/09:00pm 7.0 4.2 5.0 87 0.9 S 9 11 5 6 - - 0.0
28/08:30pm 8.2 5.6 6.0 86 1.0 S 9 9 5 5 - - 0.0
28/08:00pm 8.3 5.7 6.1 86 1.0 S 9 13 5 7 - - 0.0
28/07:30pm 8.7 7.8 6.0 83 1.3 CALM 0 0 0 0 - - 0.0
28/07:00pm 10.4 9.4 5.8 73 2.2 CALM 0 0 0 0 - - 0.0
28/06:30pm 13.2 12.4 6.5 64 3.3 CALM 0 2 0 1 - - 0.0
28/06:00pm 15.0 13.8 6.6 57 4.1 N 2 2 1 1 - - 0.0
28/05:30pm 16.1 14.5 6.5 53 4.8 N 4 7 2 4 - - 0.0
28/05:00pm 17.6 15.5 5.9 46 5.8 N 6 7 3 4 - - 0.0
28/04:30pm 18.4 16.3 5.9 44 6.2 N 6 7 3 4 - - 0.0
28/04:00pm 18.6 16.5 5.8 43 6.4 NNE 6 7 3 4 - - 0.0
28/03:30pm 18.8 16.7 6.0 43 6.4 N 6 9 3 5 - - 0.0
28/03:00pm 19.0 16.9 6.5 44 6.3 NE 7 11 4 6 - - 0.0
28/02:30pm 18.8 16.6 6.0 43 6.4 N 7 11 4 6 - - 0.0
28/02:00pm 19.0 16.9 5.8 42 6.6 NNW 6 11 3 6 - - 0.0
28/01:30pm 18.5 16.2 5.0 41 6.6 N 6 11 3 6 - - 0.0
28/01:00pm 18.4 16.2 5.3 42 6.5 N 6 9 3 5 - - 0.0
28/12:30pm 17.9 15.7 6.1 46 5.9 N 7 11 4 6 - - 0.0
28/12:00pm 17.7 15.7 6.3 47 5.7 N 6 11 3 6 - - 0.0
28/11:30am 17.3 15.4 7.6 53 5.0 NNE 7 13 4 7 - - 0.0
28/11:00am 16.6 15.0 8.1 57 4.4 NNE 6 11 3 6 - - 0.0
28/10:30am 15.5 13.5 7.3 58 4.1 NNE 7 9 4 5 - - 0.0
28/10:00am 15.6 14.4 7.9 60 3.9 SE 4 7 2 4 - - 0.0
28/09:30am 14.5 13.5 8.7 68 3.0 S 4 4 2 2 - - 0.0
28/09:00am 12.4 12.1 8.5 77 2.0 CALM 0 2 0 1 - - 0.2
28/08:30am 10.1 8.8 7.5 84 1.3 SSW 4 6 2 3 - - -
28/08:00am 6.9 4.8 6.0 94 0.4 SSW 6 7 3 4 - - -
28/07:30am 4.2 1.4 2.9 91 0.5 S 7 9 4 5 - - -
28/07:00am 3.5 0.8 2.9 96 0.2 SSW 6 7 3 4 - - -
28/06:30am 3.5 1.2 2.8 95 0.3 S 4 6 2 3 - - -
28/06:00am 3.8 2.3 3.1 95 0.3 CALM 0 0 0 0 - - -
28/05:30am 3.8 1.9 2.9 94 0.4 SSW 2 6 1 3 - - -
28/05:00am 3.4 1.1 2.5 94 0.4 SSW 4 6 2 3 - - -
28/04:30am 3.7 1.0 2.7 93 0.4 SSW 6 9 3 5 - - -
28/04:00am 4.2 1.9 2.7 90 0.6 SSW 4 6 2 3 - - -
28/03:30am 5.1 2.6 3.8 91 0.6 S 6 9 3 5 - - -
28/03:00am 4.5 1.9 3.2 91 0.5 SSW 6 7 3 4 - - -
28/02:30am 5.4 3.0 4.1 91 0.6 SSW 6 9 3 5 - - -
28/02:00am 6.0 3.6 4.2 88 0.8 S 6 9 3 5 - - -
28/01:30am 6.4 3.5 4.4 87 0.9 SSW 9 13 5 7 - - -
28/01:00am 6.3 2.9 4.1 86 1.0 S 11 15 6 8 - - -
28/12:30am 6.3 3.4 4.8 90 0.7 S 9 15 5 8 - - -
28/12:00am 6.4 3.2 4.9 90 0.7 SSW 11 13 6 7 - - -
 
Date/Time
EST
Temp
°C
App
Temp
°C
Dew
Point
Rel
Hum
%
Delta-T
°C
Wind Press
QNH
hPa
Press
MSL
hPa
Rain
since 9 am
mm
Dir
 
Spd
km/h
Gust
km/h
Spd
kts
Gust
kts
27/11:30pm 7.3 4.5 5.3 87 0.9 S 9 13 5 7 - - -
27/11:00pm 7.2 4.0 5.3 88 0.9 SSW 11 13 6 7 - - -
27/10:00pm 9.8 - 6.9 82 1.4 - - - - - - - -
27/09:30pm 9.4 6.2 6.8 84 1.2 SSW 13 15 7 8 - - 0.2
27/09:00pm 9.7 6.1 6.6 81 1.5 SSW 15 19 8 10 - - 0.2
27/08:30pm 9.6 7.1 6.7 82 1.4 SSW 9 13 5 7 - - 0.2
27/08:00pm 9.9 6.7 6.8 81 1.5 SSW 13 17 7 9 - - 0.2
27/07:30pm 10.3 7.9 7.0 80 1.6 SSE 9 13 5 7 - - 0.2
27/07:00pm 11.9 8.9 7.6 75 2.1 S 13 15 7 8 - - 0.2
27/06:30pm 12.5 9.2 8.2 75 2.2 SSE 15 19 8 10 - - 0.2
27/06:00pm 11.4 8.8 7.9 79 1.7 SSE 11 15 6 8 - - 0.2
27/05:30pm 14.1 12.7 8.9 71 2.7 SE 6 7 3 4 - - 0.2
27/05:00pm 16.4 15.1 9.8 65 3.5 SE 7 9 4 5 - - 0.2
27/04:30pm 17.0 15.7 10.1 64 3.7 SE 7 11 4 6 - - 0.2
27/04:00pm 18.3 16.9 9.6 57 4.7 SE 7 13 4 7 - - 0.2
27/03:30pm 18.1 17.0 10.5 61 4.1 SE 7 11 4 6 - - 0.2
27/03:00pm 20.1 18.7 8.8 48 6.0 SSW 6 11 3 6 - - 0.2
27/02:30pm 20.0 18.4 8.7 48 6.0 SW 7 15 4 8 - - 0.2
27/02:00pm 20.4 19.0 9.0 48 6.1 W 6 11 3 6 - - 0.2
27/01:30pm 19.7 18.2 9.0 50 5.7 SW 7 15 4 8 - - 0.2
27/01:00pm 19.3 16.2 7.4 46 6.1 WSW 13 20 7 11 - - 0.2
27/12:30pm 19.1 17.0 8.1 49 5.7 WSW 9 17 5 9 - - 0.2
27/12:00pm 18.3 16.2 8.3 52 5.2 WSW 9 20 5 11 - - 0.2
27/11:30am 18.1 16.0 8.4 53 5.1 WSW 9 15 5 8 - - 0.0
27/11:00am 17.3 16.3 9.0 58 4.4 SSE 4 7 2 4 - - 0.0
27/10:30am 16.6 15.8 8.1 57 4.4 ESE 2 4 1 2 - - 0.0
27/10:00am 16.4 15.9 10.7 69 3.1 SSE 4 6 2 3 - - 0.0
27/09:30am 14.2 13.3 9.2 72 2.6 S 4 4 2 2 - - 0.0
27/09:00am 12.7 11.3 9.0 78 1.9 S 6 9 3 5 - - 0.0
27/08:30am 10.7 9.7 8.8 88 1.0 S 4 6 2 3 - - 0.0
27/08:00am 7.7 5.6 6.8 94 0.4 SSW 7 11 4 6 - - 0.0
27/07:30am 5.3 2.4 4.9 97 0.2 S 9 11 5 6 - - 0.0
27/07:00am 3.8 0.2 3.2 96 0.2 SSW 11 11 6 6 - - 0.0
27/06:30am 4.0 0.8 3.1 94 0.4 S 9 13 5 7 - - 0.0
27/06:00am 4.4 0.6 4.0 97 0.2 S 13 15 7 8 - - 0.0
27/05:30am 4.1 0.3 3.7 97 0.2 SSW 13 15 7 8 - - 0.0
27/05:00am 4.2 1.1 3.6 96 0.3 S 9 11 5 6 - - 0.0
27/04:30am 4.5 1.4 3.8 95 0.3 SSW 9 13 5 7 - - 0.0
27/04:00am 4.5 0.7 3.9 96 0.3 S 13 15 7 8 - - 0.0
27/03:30am 4.5 1.1 4.1 97 0.2 SSW 11 13 6 7 - - 0.0
27/03:00am 4.3 1.2 3.7 96 0.3 SSW 9 11 5 6 - - 0.0
27/02:30am 5.1 1.8 4.7 97 0.2 S 11 13 6 7 - - 0.0
27/02:00am 4.7 1.4 4.3 97 0.2 SSW 11 11 6 6 - - 0.0
27/01:30am 4.9 1.6 4.5 97 0.2 SSW 11 13 6 7 - - 0.0
27/01:00am 5.5 2.3 5.1 97 0.2 SSW 11 11 6 6 - - 0.0
27/12:30am 5.5 2.3 4.9 96 0.3 SSW 11 11 6 6 - - 0.0
27/12:00am 6.2 3.5 5.5 95 0.3 SSW 9 11 5 6 - - 0.0
 
Date/Time
EST
Temp
°C
App
Temp
°C
Dew
Point
Rel
Hum
%
Delta-T
°C
Wind Press
QNH
hPa
Press
MSL
hPa
Rain
since 9 am
mm
Dir
 
Spd
km/h
Gust
km/h
Spd
kts
Gust
kts
26/11:30pm 6.6 4.0 5.9 95 0.3 SSW 9 11 5 6 - - 0.0
26/11:00pm 6.7 3.7 5.8 94 0.4 SSW 11 13 6 7 - - 0.0
26/10:30pm 6.8 3.8 5.9 94 0.4 SSW 11 13 6 7 - - 0.0
26/10:00pm 7.9 5.0 6.5 91 0.7 S 11 13 6 7 - - 0.0
26/09:30pm 8.5 5.7 7.1 91 0.7 S 11 13 6 7 - - 0.0
26/09:00pm 7.8 5.3 6.6 92 0.6 S 9 11 5 6 - - 0.0
26/08:30pm 8.3 5.8 6.6 89 0.8 SSW 9 11 5 6 - - 0.0
26/08:00pm 9.0 6.2 6.8 86 1.0 S 11 13 6 7 - - 0.0
26/07:30pm 10.7 7.8 8.3 85 1.2 S 13 15 7 8 - - 0.0
26/07:00pm 10.6 8.0 7.7 82 1.4 S 11 15 6 8 - - 0.0
26/06:30pm 11.8 10.6 8.1 78 1.8 SE 4 6 2 3 - - 0.0
26/06:00pm 13.5 11.6 7.7 68 2.9 ESE 7 11 4 6 - - 0.0
26/05:30pm 16.7 15.1 6.5 51 5.1 WNW 4 4 2 2 - - 0.0
26/05:00pm 18.3 16.8 6.8 47 5.8 NW 4 6 2 3 - - 0.0
26/04:30pm 18.8 17.5 6.0 43 6.4 N 2 4 1 2 - - 0.0
26/04:00pm 18.7 17.4 6.2 44 6.3 ESE 2 4 1 2 - - 0.0
26/03:30pm 18.9 17.4 6.7 45 6.2 WNW 4 7 2 4 - - 0.0
26/03:00pm 18.5 16.9 6.4 45 6.1 S 4 7 2 4 - - 0.0
26/02:30pm 18.4 16.3 5.9 44 6.2 SW 6 9 3 5 - - 0.0
26/02:00pm 18.9 17.2 7.4 47 5.9 WSW 6 7 3 4 - - 0.0
26/01:30pm 17.8 16.3 7.0 49 5.5 SSW 4 9 2 5 - - 0.0
26/01:00pm 18.1 16.6 6.9 48 5.7 W 4 7 2 4 - - 0.0
26/12:30pm 17.9 16.8 6.7 48 5.7 ESE 2 6 1 3 - - 0.0
26/12:00pm 17.1 15.5 6.3 49 5.4 SSW 4 9 2 5 - - 0.0
26/11:30am 16.7 14.8 6.5 51 5.1 SE 6 9 3 5 - - 0.0
26/11:00am 17.0 14.8 7.9 55 4.7 ENE 9 15 5 8 - - 0.0
26/10:30am 16.5 14.8 7.7 56 4.5 E 6 7 3 4 - - 0.0
26/10:00am 15.6 14.5 8.4 62 3.7 SSE 4 9 2 5 - - 0.0
26/09:30am 13.8 11.9 7.6 66 3.1 S 7 11 4 6 - - 0.0
26/09:00am 12.6 10.1 8.1 74 2.3 S 11 15 6 8 - - 0.2
26/08:30am 10.8 7.7 7.1 78 1.8 S 13 17 7 9 - - 0.2
26/08:00am 8.9 5.2 6.3 84 1.2 S 15 20 8 11 - - 0.2
26/07:30am 7.2 3.4 5.8 91 0.6 S 15 19 8 10 - - 0.2
26/07:00am 5.6 2.7 4.4 92 0.5 SSW 9 13 5 7 - - 0.2
26/06:30am 6.5 2.5 5.1 91 0.6 S 15 19 8 10 - - 0.2
26/06:00am 7.1 2.9 5.9 92 0.5 S 17 20 9 11 - - 0.2
26/05:30am 6.5 3.4 5.5 93 0.5 S 11 15 6 8 - - 0.2
26/05:00am 7.0 2.8 5.6 91 0.6 S 17 20 9 11 - - 0.2
26/04:30am 7.8 3.7 6.4 91 0.7 S 17 22 9 12 - - 0.2
26/04:00am 7.6 3.9 6.1 90 0.7 S 15 22 8 12 - - 0.2
26/03:30am 7.9 3.7 5.9 87 0.9 S 17 22 9 12 - - 0.2
26/03:00am 8.3 3.6 6.1 86 1.0 S 20 30 11 16 - - 0.2
26/02:30am 7.8 3.6 5.6 86 1.0 S 17 20 9 11 - - 0.2
26/02:00am 7.7 3.9 5.8 88 0.9 S 15 19 8 10 - - 0.2
26/01:30am 7.0 3.5 5.3 89 0.8 S 13 17 7 9 - - 0.2
26/01:00am 7.3 3.1 5.6 89 0.8 S 17 19 9 10 - - 0.2
26/12:30am 8.3 3.8 6.1 86 1.0 S 19 24 10 13 - - 0.2
26/12:00am 8.8 3.8 6.6 86 1.0 S 22 30 12 16 - - 0.2
 
Date/Time
EST
Temp
°C
App
Temp
°C
Dew
Point
Rel
Hum
%
Delta-T
°C
Wind Press
QNH
hPa
Press
MSL
hPa
Rain
since 9 am
mm
Dir
 
Spd
km/h
Gust
km/h
Spd
kts
Gust
kts
25/11:30pm 9.2 4.3 6.8 85 1.1 S 22 32 12 17 - - 0.2
25/11:00pm 9.6 4.3 7.0 84 1.2 S 24 33 13 18 - - 0.2

Other Formats:

Comma delimited format used in spreadsheet applications
http://www.bom.gov.au/fwo/IDV60801/IDV60801.94859.axf

JavaScript Object Notation format (JSON) in row-major order
http://www.bom.gov.au/fwo/IDV60801/IDV60801.94859.json